Time;durP1;ratioP1;P1;durP2;ratioP2;P2;SDS_P1;SDS_P2;PMS_P1;PMS_P2;Temp;Humidity;BMP_temperature;BMP_pressure;BME280_temperature;BME280_humidity;BME280_pressure;Samples;Min_cycle;Max_cycle;Signal;HPM_P1;HPM_P2
2022/07/12 00:01:37;;;;;;;1.10;0.60;;;25.10;49.00;;;;;;5043440;28;20037;-78
2022/07/12 00:04:03;;;;;;;2.38;0.70;;;25.10;48.80;;;;;;5034583;28;20050;-78
2022/07/12 00:06:31;;;;;;;3.55;0.85;;;25.10;48.90;;;;;;5034761;28;20468;-78
2022/07/12 00:08:56;;;;;;;1.95;0.80;;;25.00;48.70;;;;;;5046066;28;20064;-78
2022/07/12 00:11:23;;;;;;;2.47;0.80;;;24.90;49.00;;;;;;5034696;28;20044;-78
2022/07/12 00:13:49;;;;;;;1.42;0.70;;;24.80;49.30;;;;;;5034384;28;20056;-78
2022/07/12 00:16:15;;;;;;;1.23;0.68;;;24.80;49.10;;;;;;5034632;28;20088;-78
2022/07/12 00:18:41;;;;;;;1.52;0.77;;;24.80;49.50;;;;;;5052693;28;20079;-77
2022/07/12 00:21:07;;;;;;;2.38;0.85;;;24.80;49.00;;;;;;5056820;28;20037;-77
2022/07/12 00:23:34;;;;;;;1.95;0.75;;;24.70;49.70;;;;;;5058237;28;20498;-77
2022/07/12 00:26:04;;;;;;;4.63;0.60;;;24.70;50.40;;;;;;5058048;28;20017;-77
2022/07/12 00:28:32;;;;;;;1.35;0.82;;;24.60;49.40;;;;;;5050808;28;20078;-78
2022/07/12 00:30:59;;;;;;;2.53;0.80;;;24.70;49.50;;;;;;5037948;28;20044;-78
2022/07/12 00:33:25;;;;;;;1.08;0.75;;;24.70;49.40;;;;;;5050555;28;20514;-78
2022/07/12 00:35:51;;;;;;;3.33;0.82;;;24.70;49.00;;;;;;5057793;28;20036;-77
2022/07/12 00:38:17;;;;;;;1.50;0.80;;;24.70;48.90;;;;;;5057373;28;20021;-77
2022/07/12 00:40:43;;;;;;;1.20;0.50;;;24.70;48.90;;;;;;5038981;28;20033;-78
2022/07/12 00:43:09;;;;;;;0.93;0.50;;;24.80;49.00;;;;;;5037604;28;20032;-78
2022/07/12 00:45:35;;;;;;;3.20;0.90;;;24.80;48.90;;;;;;5051363;28;20029;-77
2022/07/12 00:48:01;;;;;;;5.13;1.20;;;24.70;49.10;;;;;;5057663;28;20479;-77
2022/07/12 00:50:27;;;;;;;2.35;0.98;;;24.70;49.10;;;;;;5057604;28;20048;-77
2022/07/12 00:52:54;;;;;;;1.00;0.60;;;24.70;49.20;;;;;;5047396;28;20029;-77
2022/07/12 00:55:22;;;;;;;1.60;0.60;;;24.70;48.50;;;;;;5035827;28;20087;-78
2022/07/12 00:57:49;;;;;;;2.78;0.90;;;24.70;49.20;;;;;;5037234;28;20108;-78
2022/07/12 01:00:18;;;;;;;1.30;0.75;;;24.60;49.10;;;;;;5042539;28;20037;-77
2022/07/12 01:02:44;;;;;;;1.40;0.80;;;24.60;49.20;;;;;;5056138;28;20538;-78
2022/07/12 01:05:10;;;;;;;0.90;0.55;;;24.60;49.50;;;;;;5051839;28;20037;-78
2022/07/12 01:07:36;;;;;;;1.40;0.90;;;24.50;49.30;;;;;;5044051;28;20091;-78
2022/07/12 01:10:05;;;;;;;1.83;0.90;;;24.50;49.60;;;;;;5057241;28;20054;-77
2022/07/12 01:12:31;;;;;;;1.60;0.85;;;24.50;49.30;;;;;;5056112;28;20396;-77
2022/07/12 01:14:58;;;;;;;2.72;0.75;;;24.50;49.30;;;;;;5036837;28;20048;-78
2022/07/12 01:17:26;;;;;;;1.55;0.80;;;24.40;49.70;;;;;;5043700;28;20479;-78
2022/07/12 01:19:54;;;;;;;2.63;0.80;;;24.40;49.90;;;;;;5057138;28;20017;-78
2022/07/12 01:22:25;;;;;;;1.77;0.70;;;24.40;49.30;;;;;;5056521;28;20601;-77
2022/07/12 01:24:50;;;;;;;3.47;0.90;;;24.30;49.70;;;;;;5043629;28;20062;-78
2022/07/12 01:27:16;;;;;;;1.60;0.90;;;24.30;50.00;;;;;;5056714;28;20100;-78
2022/07/12 01:29:42;;;;;;;4.10;0.77;;;24.30;49.90;;;;;;5053787;28;20023;-78
2022/07/12 01:32:24;;;;;;;2.58;0.80;;;24.30;49.40;;;;;;5036313;28;20531;-78
2022/07/12 01:35:03;;;;;;;1.23;0.90;;;24.30;49.90;;;;;;5036786;28;20017;-77
2022/07/12 01:37:46;;;;;;;1.20;1.00;;;24.30;49.90;;;;;;5036541;28;20396;-78
2022/07/12 01:40:14;;;;;;;3.95;1.00;;;24.20;49.70;;;;;;5036624;28;20646;-78
2022/07/12 01:42:40;;;;;;;2.70;0.77;;;24.20;49.90;;;;;;5036524;28;20025;-78
2022/07/12 01:45:08;;;;;;;2.30;1.63;;;24.20;50.20;;;;;;5036594;28;20025;-78
2022/07/12 01:47:34;;;;;;;3.47;0.73;;;24.20;50.20;;;;;;5036478;28;20103;-77
2022/07/12 01:50:00;;;;;;;4.00;1.05;;;24.10;50.50;;;;;;5036290;28;20022;-78
2022/07/12 01:52:27;;;;;;;1.20;0.70;;;24.00;50.40;;;;;;5036524;28;20029;-77
2022/07/12 01:54:56;;;;;;;2.50;1.00;;;24.00;50.50;;;;;;5036279;28;20021;-77
2022/07/12 01:57:22;;;;;;;1.47;0.90;;;24.00;50.60;;;;;;5036216;28;20109;-77
2022/07/12 01:59:48;;;;;;;2.90;1.02;;;24.00;50.50;;;;;;5036059;28;20299;-77
2022/07/12 02:02:14;;;;;;;1.70;0.70;;;24.00;50.80;;;;;;5036245;28;20026;-77
2022/07/12 02:04:39;;;;;;;3.67;0.95;;;24.00;50.60;;;;;;5036118;28;20060;-78
2022/07/12 02:07:06;;;;;;;2.13;0.80;;;23.90;50.90;;;;;;5038371;28;20105;-77
2022/07/12 02:09:32;;;;;;;2.75;0.88;;;23.80;51.00;;;;;;5036155;28;20055;-78
2022/07/12 02:11:58;;;;;;;1.45;0.70;;;23.80;51.30;;;;;;5044435;28;20060;-78
2022/07/12 02:14:24;;;;;;;2.15;1.08;;;23.80;51.40;;;;;;5055162;28;20029;-78
2022/07/12 02:16:50;;;;;;;1.58;0.90;;;23.70;51.00;;;;;;5037820;28;20028;-78
2022/07/12 02:19:15;;;;;;;3.50;0.90;;;23.80;51.50;;;;;;5053807;28;20045;-77
2022/07/12 02:21:41;;;;;;;2.15;0.98;;;23.70;51.40;;;;;;5036032;28;20383;-78
2022/07/12 02:24:07;;;;;;;1.52;0.77;;;23.60;51.70;;;;;;5035759;28;20411;-78
2022/07/12 02:26:37;;;;;;;1.23;0.73;;;23.60;51.70;;;;;;5035493;28;20017;-77
2022/07/12 02:29:06;;;;;;;1.88;0.75;;;23.60;51.70;;;;;;5035591;28;20048;-78
2022/07/12 02:31:32;;;;;;;2.75;1.27;;;23.60;51.70;;;;;;5035566;28;20030;-77
2022/07/12 02:33:58;;;;;;;1.30;0.80;;;23.60;51.70;;;;;;5035743;28;20112;-77
2022/07/12 02:36:24;;;;;;;2.90;1.00;;;23.60;51.60;;;;;;5042884;28;20029;-78
2022/07/12 02:38:50;;;;;;;1.33;1.00;;;23.50;52.10;;;;;;5055470;28;20079;-77
2022/07/12 02:41:16;;;;;;;1.20;0.70;;;23.60;51.70;;;;;;5055112;28;20022;-77
2022/07/12 02:43:41;;;;;;;6.30;0.82;;;23.50;52.50;;;;;;5037251;28;20025;-77
2022/07/12 02:46:15;;;;;;;1.33;0.70;;;23.50;52.50;;;;;;5035505;28;20025;-77
2022/07/12 02:48:42;;;;;;;1.48;0.90;;;23.40;52.50;;;;;;5035462;28;20022;-77
2022/07/12 02:51:09;;;;;;;5.20;1.40;;;23.40;52.70;;;;;;5050248;28;20487;-77
2022/07/12 02:53:35;;;;;;;1.50;0.82;;;23.30;52.70;;;;;;5055294;28;20025;-77
2022/07/12 02:56:00;;;;;;;4.47;1.00;;;23.30;52.30;;;;;;5055194;28;20024;-77
2022/07/12 02:58:26;;;;;;;1.98;0.85;;;23.30;53.20;;;;;;5047483;28;20518;-77
2022/07/12 03:00:52;;;;;;;1.98;0.77;;;23.30;53.30;;;;;;5054902;28;20017;-77
2022/07/12 03:03:21;;;;;;;1.50;1.05;;;23.20;53.20;;;;;;5055060;28;20048;-77
2022/07/12 03:05:47;;;;;;;3.42;1.02;;;23.20;53.20;;;;;;5048999;28;20036;-77
2022/07/12 03:08:13;;;;;;;1.13;0.70;;;23.20;53.20;;;;;;5035185;28;20061;-77
2022/07/12 03:10:39;;;;;;;1.98;1.00;;;23.20;53.10;;;;;;5035009;28;20024;-77
2022/07/12 03:13:05;;;;;;;1.10;0.80;;;23.20;53.10;;;;;;5035022;28;20033;-77
2022/07/12 03:15:31;;;;;;;2.20;0.73;;;23.20;53.30;;;;;;5033779;28;20468;-77
2022/07/12 03:17:59;;;;;;;1.33;0.80;;;23.10;54.20;;;;;;5048573;28;20037;-77
2022/07/12 03:20:25;;;;;;;1.42;0.93;;;23.00;54.50;;;;;;5054806;28;20021;-78
2022/07/12 03:22:51;;;;;;;3.47;1.00;;;22.80;53.90;;;;;;5053646;28;20036;-77
2022/07/12 03:25:18;;;;;;;3.72;1.08;;;22.80;54.80;;;;;;5048554;28;20017;-77
2022/07/12 03:27:44;;;;;;;2.08;1.10;;;22.80;55.00;;;;;;5034925;28;20033;-77
2022/07/12 03:30:10;;;;;;;2.42;1.00;;;22.80;55.30;;;;;;5034960;28;20466;-77
2022/07/12 03:32:37;;;;;;;1.48;1.08;;;22.70;55.70;;;;;;5035135;28;20025;-77
2022/07/12 03:35:03;;;;;;;1.40;1.00;;;22.70;55.40;;;;;;5038290;28;20025;-77
2022/07/12 03:37:46;;;;;;;5.57;1.00;;;22.70;55.40;;;;;;5054772;28;20048;-77
2022/07/12 03:40:13;;;;;;;2.70;0.95;;;22.70;55.20;;;;;;5054632;28;20028;-77
2022/07/12 03:42:56;;;;;;;2.45;0.98;;;22.60;54.70;;;;;;5051428;28;20017;-78
2022/07/12 03:45:22;;;;;;;2.65;1.10;;;22.60;55.40;;;;;;5033834;28;20395;-77
2022/07/12 03:47:48;;;;;;;2.70;1.10;;;22.60;54.50;;;;;;5035024;28;20029;-77
2022/07/12 03:50:14;;;;;;;2.35;1.05;;;22.60;54.90;;;;;;5037642;28;20078;-77
2022/07/12 03:52:41;;;;;;;1.63;1.10;;;22.60;54.90;;;;;;5055790;28;20033;-77
2022/07/12 03:55:07;;;;;;;2.10;0.88;;;22.50;55.80;;;;;;5058554;28;20116;-77
2022/07/12 03:57:33;;;;;;;1.80;1.00;;;22.50;56.00;;;;;;5051673;28;20022;-77
2022/07/12 03:59:59;;;;;;;3.47;0.95;;;22.40;56.20;;;;;;5040179;28;20502;-77
2022/07/12 04:02:24;;;;;;;1.73;1.00;;;22.40;55.30;;;;;;5058502;28;20471;-78
2022/07/12 04:04:51;;;;;;;1.52;1.00;;;22.40;55.20;;;;;;5058314;28;20074;-78
2022/07/12 04:07:16;;;;;;;2.95;1.20;;;22.40;55.50;;;;;;5049765;28;20029;-77
2022/07/12 04:09:42;;;;;;;1.58;0.90;;;22.40;55.80;;;;;;5038395;28;20492;-77
2022/07/12 04:12:08;;;;;;;1.90;1.30;;;22.40;56.10;;;;;;5038235;28;20028;-77
2022/07/12 04:14:34;;;;;;;1.42;1.08;;;22.30;56.20;;;;;;5050435;28;20039;-77
2022/07/12 04:17:04;;;;;;;1.38;0.82;;;22.30;55.80;;;;;;5057149;28;20076;-77
2022/07/12 04:19:31;;;;;;;;;;;22.30;56.10;;;;;;5058567;28;20035;-77
2022/07/12 04:21:57;;;;;;;5.18;1.02;;;22.30;55.90;;;;;;5058105;28;19927;-78
2022/07/12 04:24:23;;;;;;;1.58;0.80;;;22.30;56.30;;;;;;5042013;28;20021;-77
2022/07/12 04:26:48;;;;;;;1.90;0.95;;;22.30;56.50;;;;;;5037896;28;20028;-77
2022/07/12 04:29:18;;;;;;;1.67;1.20;;;22.30;56.50;;;;;;5038060;28;20033;-77
2022/07/12 04:31:44;;;;;;;3.72;1.40;;;22.20;56.50;;;;;;5037742;28;20030;-77
2022/07/12 04:34:10;;;;;;;2.15;0.93;;;22.20;56.30;;;;;;5037796;28;20084;-78
2022/07/12 04:36:36;;;;;;;1.80;1.50;;;22.10;56.50;;;;;;5037623;28;20569;-77
2022/07/12 04:39:02;;;;;;;2.35;1.17;;;22.20;56.70;;;;;;5037818;28;20089;-77
2022/07/12 04:41:28;;;;;;;5.03;1.08;;;22.20;55.70;;;;;;5037658;28;20030;-77
2022/07/12 04:43:54;;;;;;;2.78;1.30;;;22.20;56.30;;;;;;5048208;28;20630;-77
2022/07/12 04:46:19;;;;;;;1.60;0.93;;;22.30;56.40;;;;;;5057768;28;20620;-77
2022/07/12 04:48:45;;;;;;;3.00;1.27;;;22.30;56.70;;;;;;5057658;28;20496;-77
2022/07/12 04:51:11;;;;;;;4.68;1.10;;;22.30;56.90;;;;;;5051440;28;20029;-77
2022/07/12 04:53:36;;;;;;;2.30;1.35;;;22.30;56.00;;;;;;5047643;28;20483;-77
2022/07/12 04:56:02;;;;;;;2.92;1.08;;;22.40;56.00;;;;;;5057424;28;20625;-77
2022/07/12 04:58:28;;;;;;;1.95;0.98;;;22.40;55.90;;;;;;5043515;28;20059;-77
2022/07/12 05:00:54;;;;;;;2.03;1.40;;;22.40;56.00;;;;;;5048007;28;20108;-77
2022/07/12 05:03:20;;;;;;;1.35;1.08;;;22.50;55.50;;;;;;5048547;28;20020;-77
2022/07/12 05:05:45;;;;;;;1.23;0.90;;;22.40;56.10;;;;;;5045260;28;20040;-77
2022/07/12 05:08:11;;;;;;;2.00;1.10;;;22.50;55.90;;;;;;5036225;28;20036;-76
2022/07/12 05:10:37;;;;;;;2.35;1.17;;;22.40;55.90;;;;;;5037034;28;20038;-77
2022/07/12 05:13:02;;;;;;;4.07;0.98;;;22.40;55.40;;;;;;5044396;28;20072;-77
2022/07/12 05:15:28;;;;;;;2.75;1.30;;;22.50;56.30;;;;;;5037127;28;20029;-77
2022/07/12 05:17:54;;;;;;;1.85;1.00;;;22.50;55.70;;;;;;5047681;28;20509;-78
2022/07/12 05:20:19;;;;;;;2.75;1.35;;;22.50;55.80;;;;;;5050213;28;20800;-77
2022/07/12 05:22:45;;;;;;;1.58;1.20;;;22.50;56.10;;;;;;5056591;28;20047;-77
2022/07/12 05:25:11;;;;;;;3.53;1.30;;;22.50;55.80;;;;;;5037277;28;20027;-77
2022/07/12 05:27:37;;;;;;;3.10;0.98;;;22.50;55.40;;;;;;5036630;28;20033;-77
2022/07/12 05:30:06;;;;;;;2.70;1.02;;;22.50;56.30;;;;;;5036611;28;20040;-77
2022/07/12 05:32:31;;;;;;;2.10;1.00;;;22.40;56.60;;;;;;5036723;28;20025;-77
2022/07/12 05:34:58;;;;;;;2.30;1.00;;;22.50;56.20;;;;;;5036709;28;20052;-77
2022/07/12 05:37:25;;;;;;;3.33;1.15;;;22.50;56.20;;;;;;5045360;28;20530;-77
2022/07/12 05:39:51;;;;;;;2.97;1.20;;;22.50;55.90;;;;;;5056662;28;20021;-77
2022/07/12 05:42:17;;;;;;;2.55;1.08;;;22.50;56.00;;;;;;5041249;28;20454;-78
2022/07/12 05:44:42;;;;;;;2.17;1.10;;;22.60;56.90;;;;;;5036540;28;20032;-77
2022/07/12 05:47:08;;;;;;;2.13;1.10;;;22.50;56.50;;;;;;5036478;28;20021;-77
2022/07/12 05:49:33;;;;;;;1.88;0.88;;;22.50;56.70;;;;;;5036213;28;20495;-77
2022/07/12 05:54:43;;;;;;;2.03;1.08;;;22.50;56.40;;;;;;5054802;28;20086;-78
2022/07/12 05:57:09;;;;;;;2.42;1.10;;;22.60;56.60;;;;;;5036078;28;20021;-77
2022/07/12 05:59:35;;;;;;;3.08;1.00;;;22.60;56.80;;;;;;5036261;28;20025;-77
2022/07/12 06:02:01;;;;;;;3.78;1.08;;;22.60;56.90;;;;;;5047873;28;20144;-77
2022/07/12 06:04:27;;;;;;;2.20;1.35;;;22.60;56.60;;;;;;5035433;28;20088;-77
2022/07/12 06:06:52;;;;;;;4.30;1.10;;;22.70;56.80;;;;;;5036119;28;20017;-77
2022/07/12 06:09:18;;;;;;;2.13;0.80;;;22.70;56.50;;;;;;5036144;28;20033;-77
2022/07/12 06:11:44;;;;;;;2.42;1.27;;;22.70;56.50;;;;;;5046359;28;20032;-77
2022/07/12 06:14:11;;;;;;;1.90;0.90;;;22.80;56.40;;;;;;5055911;28;20056;-77
2022/07/12 06:16:36;;;;;;;5.10;1.27;;;22.80;56.60;;;;;;5038217;28;20041;-77
2022/07/12 06:19:02;;;;;;;1.90;0.93;;;22.90;56.30;;;;;;5055667;28;20082;-77
2022/07/12 06:21:28;;;;;;;3.45;2.17;;;22.90;56.20;;;;;;5055957;28;20082;-77
2022/07/12 06:23:53;;;;;;;2.72;1.50;;;22.90;56.70;;;;;;5043928;28;20503;-77
2022/07/12 06:26:19;;;;;;;2.85;0.95;;;23.00;56.40;;;;;;5036105;28;20113;-78
2022/07/12 06:28:45;;;;;;;3.10;1.25;;;23.00;56.60;;;;;;5035366;28;20029;-77
2022/07/12 06:31:10;;;;;;;4.80;0.90;;;23.00;56.40;;;;;;5035947;28;20036;-77
2022/07/12 06:33:36;;;;;;;2.13;1.17;;;23.10;56.60;;;;;;5034320;28;20028;-77
2022/07/12 06:36:02;;;;;;;3.90;1.23;;;23.10;56.50;;;;;;5036050;28;20365;-77
2022/07/12 06:38:27;;;;;;;2.70;1.23;;;23.10;56.70;;;;;;5040628;28;20570;-77
2022/07/12 06:40:53;;;;;;;3.20;1.15;;;23.20;56.60;;;;;;5055388;28;20048;-77
2022/07/12 06:43:19;;;;;;;3.30;1.20;;;23.20;56.50;;;;;;5055215;28;20435;-78
2022/07/12 06:45:44;;;;;;;2.25;1.17;;;23.30;56.10;;;;;;5055346;28;20391;-78
2022/07/12 06:48:10;;;;;;;2.53;1.38;;;23.30;56.70;;;;;;5044040;28;20086;-77
2022/07/12 06:50:36;;;;;;;2.63;1.08;;;23.30;56.40;;;;;;5035510;28;20030;-77
2022/07/12 06:53:01;;;;;;;3.38;1.13;;;23.30;56.60;;;;;;5040743;28;20108;-77
2022/07/12 06:55:27;;;;;;;2.38;1.25;;;23.40;56.30;;;;;;5054279;28;20037;-77
2022/07/12 06:57:53;;;;;;;4.10;1.15;;;23.50;56.00;;;;;;5055173;28;20033;-77
2022/07/12 07:00:18;;;;;;;4.38;1.35;;;23.60;56.00;;;;;;5054869;28;20104;-77
2022/07/12 07:02:44;;;;;;;2.15;1.23;;;23.70;56.60;;;;;;5055133;28;20096;-77
2022/07/12 07:05:11;;;;;;;1.58;1.10;;;23.80;56.50;;;;;;5053629;28;20048;-77
2022/07/12 07:07:36;;;;;;;1.88;1.20;;;23.80;56.30;;;;;;5055275;28;20088;-77
2022/07/12 07:10:02;;;;;;;8.32;1.48;;;23.90;56.50;;;;;;5053682;28;20641;-77
2022/07/12 07:12:28;;;;;;;3.55;0.95;;;24.00;55.60;;;;;;5052808;28;20021;-77
2022/07/12 07:14:54;;;;;;;2.50;1.20;;;24.00;55.60;;;;;;5053924;28;20029;-77
2022/07/12 07:17:19;;;;;;;3.70;0.90;;;24.10;55.10;;;;;;5054963;28;20069;-77
2022/07/12 07:19:46;;;;;;;3.20;0.98;;;24.30;54.80;;;;;;5054507;28;20029;-77
2022/07/12 07:22:12;;;;;;;5.00;1.17;;;24.40;54.60;;;;;;5053832;28;20017;-77
2022/07/12 07:24:39;;;;;;;2.20;1.20;;;24.50;54.50;;;;;;5055216;28;20025;-77
2022/07/12 07:27:05;;;;;;;2.38;1.52;;;24.80;54.00;;;;;;5046253;28;20021;-77
2022/07/12 07:32:14;;;;;;;3.00;1.20;;;25.40;52.10;;;;;;5039524;28;20036;-78
2022/07/12 07:34:41;;;;;;;2.28;1.08;;;26.50;50.40;;;;;;5041085;28;20029;-78
2022/07/12 07:37:07;;;;;;;2.95;1.00;;;28.40;45.30;;;;;;5042387;28;20381;-79
2022/07/12 07:39:34;;;;;;;3.25;1.00;;;31.10;40.70;;;;;;5038727;28;20025;-79
2022/07/12 07:41:59;;;;;;;2.58;0.80;;;32.30;38.10;;;;;;5054842;28;20108;-79
2022/07/12 07:44:25;;;;;;;4.00;0.93;;;33.80;35.90;;;;;;5051982;28;20084;-79
2022/07/12 07:46:50;;;;;;;4.07;1.10;;;35.60;33.10;;;;;;5047003;28;20030;-79
2022/07/12 07:49:16;;;;;;;6.25;0.70;;;36.90;30.00;;;;;;5038793;28;20021;-80
2022/07/12 07:51:42;;;;;;;5.47;1.08;;;38.10;28.50;;;;;;5038872;28;20111;-80
2022/07/12 07:54:07;;;;;;;3.45;0.82;;;39.00;27.70;;;;;;5052728;28;20029;-79
2022/07/12 07:56:33;;;;;;;4.78;1.00;;;39.80;26.30;;;;;;5049188;28;20025;-80
2022/07/12 07:58:59;;;;;;;2.78;0.80;;;40.20;25.00;;;;;;5038794;28;20439;-80
2022/07/12 08:01:42;;;;;;;7.00;1.00;;;40.30;25.00;;;;;;5053413;28;20032;-80
2022/07/12 08:04:09;;;;;;;2.40;1.02;;;40.60;24.50;;;;;;5058496;28;20044;-80
2022/07/12 08:06:35;;;;;;;7.32;1.08;;;41.80;24.40;;;;;;5057192;28;20017;-80
2022/07/12 08:09:01;;;;;;;2.40;0.68;;;42.30;24.10;;;;;;5058730;28;20036;-80
2022/07/12 08:11:27;;;;;;;3.97;1.13;;;42.70;23.10;;;;;;5049782;28;20034;-80
2022/07/12 08:13:52;;;;;;;5.05;0.70;;;42.90;23.70;;;;;;5038374;28;20834;-80
2022/07/12 08:16:18;;;;;;;5.25;1.00;;;43.30;22.30;;;;;;5036928;28;20033;-79
2022/07/12 08:18:44;;;;;;;3.65;0.68;;;43.30;22.10;;;;;;5054775;28;20498;-80
2022/07/12 08:21:10;;;;;;;3.33;0.75;;;44.10;22.50;;;;;;5058212;28;20028;-80
2022/07/12 08:23:35;;;;;;;5.45;1.23;;;44.60;20.30;;;;;;5056828;28;20028;-80
2022/07/12 08:26:01;;;;;;;2.55;0.60;;;44.60;20.60;;;;;;5038269;28;20105;-80
2022/07/12 08:28:27;;;;;;;2.67;0.50;;;44.70;21.20;;;;;;5043015;28;20091;-80
2022/07/12 08:30:53;;;;;;;2.90;0.77;;;45.10;20.40;;;;;;5057896;28;20033;-80
2022/07/12 08:33:19;;;;;;;2.15;0.63;;;45.10;20.00;;;;;;5043868;28;20519;-80
2022/07/12 08:35:44;;;;;;;5.30;0.77;;;45.80;20.40;;;;;;5037874;28;20025;-80
2022/07/12 08:38:10;;;;;;;1.98;0.70;;;46.20;20.20;;;;;;5036684;28;20030;-80
2022/07/12 08:40:36;;;;;;;3.10;0.70;;;46.30;19.90;;;;;;5038839;28;20029;-80
2022/07/12 08:43:02;;;;;;;4.90;0.77;;;45.60;19.50;;;;;;5057879;28;20028;-80
2022/07/12 08:45:28;;;;;;;2.80;0.63;;;45.60;19.50;;;;;;5054743;28;20487;-80
2022/07/12 08:47:54;;;;;;;3.53;0.80;;;46.00;20.00;;;;;;5042813;28;20044;-80
2022/07/12 08:50:22;;;;;;;2.55;1.00;;;45.70;19.90;;;;;;5046191;28;20032;-80
2022/07/12 08:52:50;;;;;;;3.20;0.70;;;46.00;19.50;;;;;;5057750;28;20692;-80
2022/07/12 08:55:25;;;;;;;3.88;0.90;;;46.40;18.50;;;;;;5056257;28;20116;-80
2022/07/12 08:57:55;;;;;;;4.95;0.90;;;46.40;18.90;;;;;;5057369;28;20028;-80
2022/07/12 09:00:22;;;;;;;1.58;0.70;;;46.40;19.00;;;;;;5057329;28;20029;-80
2022/07/12 09:02:56;;;;;;;1.70;0.70;;;46.90;19.20;;;;;;5046593;28;20030;-80
2022/07/12 09:05:22;;;;;;;2.35;0.93;;;46.40;18.00;;;;;;5036823;28;20053;-80
2022/07/12 09:07:49;;;;;;;3.23;0.83;;;46.40;18.80;;;;;;5037541;28;20029;-80
2022/07/12 09:10:14;;;;;;;4.80;1.02;;;46.80;18.80;;;;;;5037283;28;20609;-80
2022/07/12 09:12:42;;;;;;;1.85;0.80;;;46.80;18.20;;;;;;5038773;28;20030;-80
2022/07/12 09:15:14;;;;;;;2.03;0.98;;;46.90;17.10;;;;;;5036194;28;20026;-80
2022/07/12 09:17:41;;;;;;;1.60;0.80;;;46.30;17.60;;;;;;5046106;28;20028;-80
2022/07/12 09:20:10;;;;;;;2.50;0.80;;;45.80;17.90;;;;;;5045299;28;20113;-80
2022/07/12 09:22:36;;;;;;;5.10;0.80;;;45.00;18.80;;;;;;5036959;28;20029;-80
2022/07/12 09:25:15;;;;;;;2.72;0.98;;;45.40;18.80;;;;;;5035630;28;20083;-80
2022/07/12 09:27:57;;;;;;;2.28;0.68;;;46.40;18.80;;;;;;5036793;28;20037;-80
2022/07/12 09:30:25;;;;;;;1.35;0.90;;;46.60;18.10;;;;;;5037070;28;20045;-80
2022/07/12 09:38:28;;;;;;;2.17;0.80;;;45.70;19.20;;;;;;5040696;28;20120;-80
2022/07/12 09:40:55;;;;;;;2.15;1.00;;;46.10;18.80;;;;;;5055275;28;20070;-80
2022/07/12 09:43:22;;;;;;;2.45;0.85;;;46.60;18.80;;;;;;5056442;28;20087;-80
2022/07/12 09:45:49;;;;;;;1.17;0.80;;;46.20;17.40;;;;;;5050028;28;20097;-80
2022/07/12 09:48:16;;;;;;;1.50;0.75;;;45.10;18.40;;;;;;5036829;28;20048;-80
2022/07/12 09:50:50;;;;;;;4.45;0.88;;;45.10;18.40;;;;;;5036245;28;20025;-80
2022/07/12 09:53:42;;;;;;;3.50;0.90;;;45.50;19.40;;;;;;5036478;28;20498;-80
2022/07/12 09:56:11;;;;;;;3.90;0.63;;;46.20;19.50;;;;;;5038185;28;20033;-80
2022/07/12 09:58:46;;;;;;;2.33;0.90;;;46.30;18.10;;;;;;5035924;28;20159;-80
2022/07/12 10:01:12;;;;;;;1.10;0.70;;;46.40;18.30;;;;;;5049314;28;20029;-79
2022/07/12 10:03:40;;;;;;;2.63;0.70;;;46.40;18.20;;;;;;5055082;28;20056;-80
2022/07/12 10:06:07;;;;;;;3.03;0.77;;;45.90;18.60;;;;;;5056310;28;20051;-79
2022/07/12 10:08:34;;;;;;;2.33;0.80;;;46.10;19.10;;;;;;5056256;28;20455;-79
2022/07/12 10:11:00;;;;;;;1.67;0.80;;;45.60;17.80;;;;;;5051726;28;20025;-79
2022/07/12 10:13:26;;;;;;;3.50;1.00;;;46.00;18.70;;;;;;5035902;28;20443;-79
2022/07/12 10:16:01;;;;;;;1.77;0.75;;;46.50;18.30;;;;;;5036179;28;20048;-80
2022/07/12 10:18:27;;;;;;;2.67;0.80;;;46.70;17.70;;;;;;5049707;28;20089;-80
2022/07/12 10:20:53;;;;;;;2.92;0.80;;;46.80;18.10;;;;;;5055767;28;20021;-80
2022/07/12 10:23:37;;;;;;;2.78;0.80;;;46.80;17.80;;;;;;5055933;28;20040;-80
2022/07/12 10:26:14;;;;;;;1.38;0.70;;;45.90;17.40;;;;;;5055812;28;20021;-80
2022/07/12 10:29:00;;;;;;;1.42;0.70;;;45.70;18.10;;;;;;5036084;28;20037;-79
2022/07/12 10:31:30;;;;;;;1.08;0.70;;;45.60;17.80;;;;;;5035903;28;21356;-80
2022/07/12 10:34:09;;;;;;;6.35;1.00;;;45.50;17.80;;;;;;5034260;28;20079;-79
2022/07/12 10:36:58;;;;;;;4.20;0.80;;;45.10;18.20;;;;;;5034525;28;20096;-79
2022/07/12 10:39:25;;;;;;;4.57;0.60;;;44.70;18.80;;;;;;5049105;28;20041;-80
2022/07/12 10:42:05;;;;;;;1.30;0.60;;;43.60;19.40;;;;;;5055562;28;20056;-80
2022/07/12 10:44:41;;;;;;;2.58;0.50;;;42.70;20.60;;;;;;5041770;28;20044;-80
2022/07/12 10:47:08;;;;;;;5.85;0.60;;;41.90;20.40;;;;;;5034101;28;20021;-79
2022/07/12 10:49:35;;;;;;;2.53;0.70;;;41.20;21.50;;;;;;5035665;28;20033;-79
2022/07/12 10:52:10;;;;;;;2.43;0.50;;;40.70;22.10;;;;;;5035123;28;20032;-80
2022/07/12 10:55:06;;;;;;;1.98;0.70;;;40.30;22.60;;;;;;5035684;28;20029;-79
2022/07/12 10:57:43;;;;;;;2.90;0.45;;;39.60;22.70;;;;;;5035008;28;20026;-79
2022/07/12 11:00:11;;;;;;;1.85;0.55;;;38.80;23.30;;;;;;5039399;28;20495;-79
2022/07/12 11:02:37;;;;;;;2.38;0.63;;;37.80;23.40;;;;;;5054363;28;20028;-79
2022/07/12 11:05:03;;;;;;;2.55;0.60;;;37.40;24.90;;;;;;5046540;28;20063;-79
2022/07/12 11:07:30;;;;;;;2.55;0.60;;;37.50;26.20;;;;;;5034055;28;20025;-79
2022/07/12 11:09:56;;;;;;;1.02;0.50;;;37.30;24.80;;;;;;5034985;28;20025;-79
2022/07/12 11:12:29;;;;;;;3.33;0.60;;;37.20;24.30;;;;;;5051008;28;20036;-79
2022/07/12 11:14:55;;;;;;;1.88;0.63;;;37.10;24.30;;;;;;5055108;28;20071;-79
2022/07/12 11:17:28;;;;;;;3.40;0.63;;;37.20;25.50;;;;;;5055152;28;20025;-79
2022/07/12 11:20:27;;;;;;;1.10;0.50;;;37.30;24.40;;;;;;5052852;28;20028;-79
2022/07/12 11:22:54;;;;;;;2.45;0.55;;;37.40;23.70;;;;;;5044543;28;20036;-79
2022/07/12 11:25:20;;;;;;;1.27;0.50;;;37.30;25.10;;;;;;5034955;28;20013;-79
2022/07/12 11:27:46;;;;;;;1.08;0.60;;;37.00;24.90;;;;;;5034919;28;20030;-79
2022/07/12 11:30:13;;;;;;;1.23;0.63;;;37.00;25.80;;;;;;5034771;28;20024;-79
2022/07/12 11:32:41;;;;;;;0.98;0.52;;;37.10;26.20;;;;;;5054548;28;20049;-79
2022/07/12 11:35:22;;;;;;;1.67;0.47;;;37.00;24.90;;;;;;5054996;28;20044;-79
2022/07/12 11:37:57;;;;;;;1.90;0.45;;;36.90;25.20;;;;;;5038618;28;20788;-79
2022/07/12 11:40:28;;;;;;;1.30;0.60;;;36.80;24.50;;;;;;5054831;28;20020;-79
2022/07/12 11:42:58;;;;;;;1.83;0.55;;;36.60;23.80;;;;;;5053239;28;20025;-79
2022/07/12 11:45:24;;;;;;;;;;;36.40;24.60;;;;;;5042429;28;20022;-79
2022/07/12 11:47:49;;;;;;;1.85;0.63;;;36.50;25.40;;;;;;5034655;28;20004;-79
2022/07/12 11:50:18;;;;;;;4.55;0.60;;;36.20;24.70;;;;;;5033871;28;20185;-79
2022/07/12 11:52:44;;;;;;;1.70;0.60;;;36.30;25.20;;;;;;5034777;28;20029;-78
2022/07/12 11:55:10;;;;;;;2.22;0.55;;;36.00;25.70;;;;;;5034938;28;20084;-79
2022/07/12 11:57:35;;;;;;;1.08;0.55;;;35.90;24.90;;;;;;5039698;28;20442;-79
2022/07/12 12:00:17;;;;;;;1.02;0.63;;;35.70;25.30;;;;;;5054385;28;20024;-79
2022/07/12 12:02:43;;;;;;;2.75;0.60;;;35.70;25.40;;;;;;5054924;28;20437;-79
2022/07/12 12:05:10;;;;;;;1.30;0.68;;;35.30;25.40;;;;;;5054714;28;20060;-79
2022/07/12 12:07:35;;;;;;;1.05;0.68;;;35.30;25.00;;;;;;5053286;28;20029;-79
2022/07/12 12:10:09;;;;;;;1.60;0.60;;;35.30;25.90;;;;;;5054529;28;20032;-79
2022/07/12 12:13:16;;;;;;;0.73;0.32;;;35.00;25.60;;;;;;5036634;28;20025;-79
2022/07/12 12:15:52;;;;;;;2.78;0.50;;;35.20;25.40;;;;;;5046806;28;20033;-78
2022/07/12 12:18:35;;;;;;;0.95;0.40;;;35.30;25.90;;;;;;5052029;28;20470;-78
2022/07/12 12:21:11;;;;;;;2.05;0.57;;;35.50;24.90;;;;;;5051121;28;20100;-79
2022/07/12 12:23:40;;;;;;;1.75;0.40;;;35.70;24.90;;;;;;5038283;28;20040;-78
2022/07/12 12:26:10;;;;;;;2.33;0.40;;;35.70;25.60;;;;;;5038018;28;20021;-78
2022/07/12 12:28:50;;;;;;;3.60;0.60;;;35.80;24.60;;;;;;5038251;28;20076;-79
2022/07/12 12:31:19;;;;;;;2.22;0.38;;;35.80;24.30;;;;;;5038260;28;20475;-79
2022/07/12 12:33:49;;;;;;;0.85;0.40;;;35.80;26.00;;;;;;5037762;28;20431;-80
2022/07/12 12:36:15;;;;;;;2.03;0.40;;;35.80;23.00;;;;;;5036191;28;20088;-78
2022/07/12 12:38:42;;;;;;;2.80;0.73;;;35.70;23.70;;;;;;5043835;28;20024;-78
2022/07/12 12:41:09;;;;;;;1.10;0.55;;;35.70;24.00;;;;;;5057789;28;20099;-79
2022/07/12 12:43:35;;;;;;;2.38;0.77;;;35.60;24.20;;;;;;5057599;28;20029;-79
2022/07/12 12:46:00;;;;;;;0.90;0.45;;;35.80;24.40;;;;;;5046812;28;20037;-79
2022/07/12 12:48:28;;;;;;;1.98;0.60;;;35.80;24.30;;;;;;5037703;28;20078;-79
2022/07/12 12:51:10;;;;;;;1.77;0.50;;;35.80;24.40;;;;;;5037542;28;20385;-79
2022/07/12 12:53:38;;;;;;;1.23;0.40;;;35.70;25.60;;;;;;5037558;28;20039;-78
2022/07/12 12:56:05;;;;;;;0.50;0.23;;;35.90;25.70;;;;;;5037454;28;20083;-78
2022/07/12 12:58:31;;;;;;;1.88;0.50;;;35.70;23.80;;;;;;5037302;28;20037;-79
2022/07/12 13:00:57;;;;;;;3.70;0.52;;;35.60;24.20;;;;;;5048630;28;20072;-78
2022/07/12 13:03:26;;;;;;;1.60;0.40;;;35.80;25.50;;;;;;5057176;28;20033;-79